sensor_id;sensor_type;location;lat;lon;timestamp;pressure;altitude;pressure_sealevel;temperature;humidity
49825;BME280;35714;55.708;37.478;2023-05-11T00:01:51;100041.47;;;13.31;35.69
49825;BME280;35714;55.708;37.478;2023-05-11T00:04:17;100040.31;;;13.27;35.93
49825;BME280;35714;55.708;37.478;2023-05-11T00:06:43;100037.00;;;13.25;36.18
49825;BME280;35714;55.708;37.478;2023-05-11T00:09:09;100036.28;;;13.18;36.57
49825;BME280;35714;55.708;37.478;2023-05-11T00:11:36;100040.06;;;13.17;36.60
49825;BME280;35714;55.708;37.478;2023-05-11T00:14:02;100030.47;;;13.14;36.65
49825;BME280;35714;55.708;37.478;2023-05-11T00:16:27;100029.06;;;13.12;36.40
49825;BME280;35714;55.708;37.478;2023-05-11T00:18:53;100041.84;;;13.11;36.56
49825;BME280;35714;55.708;37.478;2023-05-11T00:21:19;100043.13;;;13.09;36.64
49825;BME280;35714;55.708;37.478;2023-05-11T00:23:47;100037.09;;;13.07;36.93
49825;BME280;35714;55.708;37.478;2023-05-11T00:26:13;100026.13;;;13.02;37.17
49825;BME280;35714;55.708;37.478;2023-05-11T00:28:41;100030.47;;;13.03;37.29
49825;BME280;35714;55.708;37.478;2023-05-11T00:31:06;100042.44;;;13.02;37.52
49825;BME280;35714;55.708;37.478;2023-05-11T00:33:32;100026.59;;;12.98;37.72
49825;BME280;35714;55.708;37.478;2023-05-11T00:35:58;100028.69;;;12.96;37.51
49825;BME280;35714;55.708;37.478;2023-05-11T00:38:24;100035.34;;;13.00;37.53
49825;BME280;35714;55.708;37.478;2023-05-11T00:40:49;100039.97;;;13.00;37.76
49825;BME280;35714;55.708;37.478;2023-05-11T00:43:15;100033.66;;;12.99;37.60
49825;BME280;35714;55.708;37.478;2023-05-11T00:45:41;100032.03;;;12.98;37.72
49825;BME280;35714;55.708;37.478;2023-05-11T00:48:07;100038.06;;;13.00;37.69
49825;BME280;35714;55.708;37.478;2023-05-11T00:50:34;100033.66;;;12.99;37.95
49825;BME280;35714;55.708;37.478;2023-05-11T00:53:00;100032.03;;;12.98;37.88
49825;BME280;35714;55.708;37.478;2023-05-11T00:55:26;100039.97;;;13.00;37.71
49825;BME280;35714;55.708;37.478;2023-05-11T00:57:53;100035.56;;;12.99;37.93
49825;BME280;35714;55.708;37.478;2023-05-11T01:00:18;100039.09;;;12.99;37.51
49825;BME280;35714;55.708;37.478;2023-05-11T01:02:44;100039.09;;;12.99;37.85
49825;BME280;35714;55.708;37.478;2023-05-11T01:05:10;100038.28;;;12.99;38.02
49825;BME280;35714;55.708;37.478;2023-05-11T01:08:05;100039.97;;;13.00;37.57
49825;BME280;35714;55.708;37.478;2023-05-11T01:10:39;100045.50;;;12.93;37.81
49825;BME280;35714;55.708;37.478;2023-05-11T01:16:02;100046.81;;;12.91;37.98
49825;BME280;35714;55.708;37.478;2023-05-11T01:18:37;100048.56;;;12.85;38.57
49825;BME280;35714;55.708;37.478;2023-05-11T01:21:12;100045.72;;;12.80;38.74
49825;BME280;35714;55.708;37.478;2023-05-11T01:32:24;100053.50;;;12.64;39.63
49825;BME280;35714;55.708;37.478;2023-05-11T01:34:59;100058.13;;;12.64;39.33
49825;BME280;35714;55.708;37.478;2023-05-11T01:37:31;100055.88;;;12.61;39.61
49825;BME280;35714;55.708;37.478;2023-05-11T01:40:02;100052.28;;;12.60;39.72
49825;BME280;35714;55.708;37.478;2023-05-11T01:42:52;100056.81;;;12.67;39.48
49825;BME280;35714;55.708;37.478;2023-05-11T01:45:21;100055.63;;;12.62;39.23
49825;BME280;35714;55.708;37.478;2023-05-11T01:47:49;100051.81;;;12.63;39.26
49825;BME280;35714;55.708;37.478;2023-05-11T01:50:16;100048.06;;;12.64;39.12
49825;BME280;35714;55.708;37.478;2023-05-11T01:52:45;100044.28;;;12.66;39.14
49825;BME280;35714;55.708;37.478;2023-05-11T01:55:13;100044.28;;;12.66;39.16
49825;BME280;35714;55.708;37.478;2023-05-11T01:57:38;100044.28;;;12.66;39.20
49825;BME280;35714;55.708;37.478;2023-05-11T02:00:06;100042.16;;;12.68;39.29
49825;BME280;35714;55.708;37.478;2023-05-11T02:02:39;100042.16;;;12.68;39.21
49825;BME280;35714;55.708;37.478;2023-05-11T02:05:06;100038.38;;;12.69;38.78
49825;BME280;35714;55.708;37.478;2023-05-11T02:07:33;100034.09;;;12.73;38.66
49825;BME280;35714;55.708;37.478;2023-05-11T02:10:01;100043.47;;;12.77;38.58
49825;BME280;35714;55.708;37.478;2023-05-11T02:12:31;100040.75;;;12.77;38.76
49825;BME280;35714;55.708;37.478;2023-05-11T02:15:01;100029.59;;;12.67;38.88
49825;BME280;35714;55.708;37.478;2023-05-11T02:17:34;100047.25;;;12.76;38.86
49825;BME280;35714;55.708;37.478;2023-05-11T02:20:01;100054.34;;;12.77;39.20
49825;BME280;35714;55.708;37.478;2023-05-11T02:22:31;100028.31;;;12.69;39.23
49825;BME280;35714;55.708;37.478;2023-05-11T02:24:57;100043.72;;;12.75;39.16
49825;BME280;35714;55.708;37.478;2023-05-11T02:27:23;100043.59;;;12.82;39.31
49825;BME280;35714;55.708;37.478;2023-05-11T02:29:49;100045.25;;;12.83;39.52
49825;BME280;35714;55.708;37.478;2023-05-11T02:32:17;100054.00;;;12.85;39.68
49825;BME280;35714;55.708;37.478;2023-05-11T02:34:49;100052.72;;;12.88;39.35
49825;BME280;35714;55.708;37.478;2023-05-11T02:37:20;100047.03;;;12.89;39.57
49825;BME280;35714;55.708;37.478;2023-05-11T02:39:54;100054.75;;;12.92;39.62
49825;BME280;35714;55.708;37.478;2023-05-11T02:42:22;100051.56;;;12.95;39.69
49825;BME280;35714;55.708;37.478;2023-05-11T02:44:54;100060.88;;;12.99;40.01
49825;BME280;35714;55.708;37.478;2023-05-11T02:47:21;100060.19;;;13.04;39.93
49825;BME280;35714;55.708;37.478;2023-05-11T02:49:54;100057.81;;;13.08;40.29
49825;BME280;35714;55.708;37.478;2023-05-11T02:52:24;100064.44;;;13.12;40.25
49825;BME280;35714;55.708;37.478;2023-05-11T02:54:52;100051.31;;;13.09;40.26
49825;BME280;35714;55.708;37.478;2023-05-11T02:57:19;100060.44;;;13.14;40.43
49825;BME280;35714;55.708;37.478;2023-05-11T02:59:45;100061.38;;;13.20;40.35
49825;BME280;35714;55.708;37.478;2023-05-11T03:02:11;100064.72;;;13.22;40.17
49825;BME280;35714;55.708;37.478;2023-05-11T03:04:38;100066.47;;;13.28;40.41
49825;BME280;35714;55.708;37.478;2023-05-11T03:07:05;100057.00;;;13.31;40.37
49825;BME280;35714;55.708;37.478;2023-05-11T03:09:31;100072.75;;;13.41;40.47
49825;BME280;35714;55.708;37.478;2023-05-11T03:11:58;100060.56;;;13.43;40.23
49825;BME280;35714;55.708;37.478;2023-05-11T03:14:25;100064.84;;;13.51;40.20
49825;BME280;35714;55.708;37.478;2023-05-11T03:16:54;100072.88;;;13.58;40.34
49825;BME280;35714;55.708;37.478;2023-05-11T03:19:21;100060.19;;;13.63;40.17
49825;BME280;35714;55.708;37.478;2023-05-11T03:21:48;100047.44;;;13.52;40.56
49825;BME280;35714;55.708;37.478;2023-05-11T03:24:16;100068.34;;;13.75;40.34
49825;BME280;35714;55.708;37.478;2023-05-11T03:26:42;100066.81;;;13.79;40.17
49825;BME280;35714;55.708;37.478;2023-05-11T03:29:10;100069.88;;;13.83;40.12
49825;BME280;35714;55.708;37.478;2023-05-11T03:31:37;100069.47;;;13.91;40.34
49825;BME280;35714;55.708;37.478;2023-05-11T03:34:03;100071.72;;;13.94;40.44
49825;BME280;35714;55.708;37.478;2023-05-11T03:36:34;100080.84;;;14.00;40.25
49825;BME280;35714;55.708;37.478;2023-05-11T03:39:00;100084.53;;;14.05;40.21
49825;BME280;35714;55.708;37.478;2023-05-11T03:41:31;100073.94;;;14.09;40.24
49825;BME280;35714;55.708;37.478;2023-05-11T03:43:59;100082.72;;;14.11;40.04
49825;BME280;35714;55.708;37.478;2023-05-11T03:46:27;100086.38;;;14.17;40.02
49825;BME280;35714;55.708;37.478;2023-05-11T03:48:55;100085.41;;;14.23;39.51
49825;BME280;35714;55.708;37.478;2023-05-11T03:51:24;100086.06;;;14.30;40.08
49825;BME280;35714;55.708;37.478;2023-05-11T03:53:50;100092.56;;;14.41;39.84
49825;BME280;35714;55.708;37.478;2023-05-11T03:56:16;100098.22;;;14.51;39.75
49825;BME280;35714;55.708;37.478;2023-05-11T03:58:41;100090.47;;;14.60;39.31
49825;BME280;35714;55.708;37.478;2023-05-11T04:01:07;100097.28;;;14.74;38.98
49825;BME280;35714;55.708;37.478;2023-05-11T04:03:35;100086.56;;;14.85;38.82
49825;BME280;35714;55.708;37.478;2023-05-11T04:06:11;100093.34;;;14.99;38.48
49825;BME280;35714;55.708;37.478;2023-05-11T04:08:37;100088.06;;;15.09;38.46
49825;BME280;35714;55.708;37.478;2023-05-11T04:11:03;100092.03;;;15.19;38.33
49825;BME280;35714;55.708;37.478;2023-05-11T04:13:28;100090.50;;;15.28;38.37
49825;BME280;35714;55.708;37.478;2023-05-11T04:15:54;100096.16;;;15.38;38.27
49825;BME280;35714;55.708;37.478;2023-05-11T04:18:19;100100.13;;;15.47;38.09
49825;BME280;35714;55.708;37.478;2023-05-11T04:20:45;100095.03;;;15.56;37.71
49825;BME280;35714;55.708;37.478;2023-05-11T04:23:11;100107.69;;;15.62;37.68
49825;BME280;35714;55.708;37.478;2023-05-11T04:25:36;100109.25;;;15.75;37.64
49825;BME280;35714;55.708;37.478;2023-05-11T04:28:02;100108.34;;;15.86;37.30
49825;BME280;35714;55.708;37.478;2023-05-11T04:30:28;100103.00;;;15.97;37.09
49825;BME280;35714;55.708;37.478;2023-05-11T04:32:54;100106.94;;;16.06;37.22
49825;BME280;35714;55.708;37.478;2023-05-11T04:35:19;100102.69;;;16.15;37.30
49825;BME280;35714;55.708;37.478;2023-05-11T04:37:46;100096.66;;;16.13;37.20
49825;BME280;35714;55.708;37.478;2023-05-11T04:40:12;100108.84;;;16.28;36.86
49825;BME280;35714;55.708;37.478;2023-05-11T04:42:39;100105.09;;;16.34;36.34
49825;BME280;35714;55.708;37.478;2023-05-11T04:45:09;100103.47;;;16.38;36.01
49825;BME280;35714;55.708;37.478;2023-05-11T04:47:35;100110.16;;;16.47;35.44
49825;BME280;35714;55.708;37.478;2023-05-11T04:50:01;100100.91;;;16.53;35.38
49825;BME280;35714;55.708;37.478;2023-05-11T04:52:31;100104.31;;;16.66;35.17
49825;BME280;35714;55.708;37.478;2023-05-11T04:54:57;100097.25;;;16.70;34.84
49825;BME280;35714;55.708;37.478;2023-05-11T04:57:22;100104.22;;;16.83;34.41
49825;BME280;35714;55.708;37.478;2023-05-11T04:59:48;100107.06;;;16.93;34.37
49825;BME280;35714;55.708;37.478;2023-05-11T05:02:14;100108.06;;;17.09;33.88
49825;BME280;35714;55.708;37.478;2023-05-11T05:04:40;100110.06;;;17.24;33.59
49825;BME280;35714;55.708;37.478;2023-05-11T05:07:05;100109.84;;;17.30;33.58
49825;BME280;35714;55.708;37.478;2023-05-11T05:09:31;100108.25;;;17.40;33.39
49825;BME280;35714;55.708;37.478;2023-05-11T05:11:57;100103.91;;;17.44;33.61
49825;BME280;35714;55.708;37.478;2023-05-11T05:14:23;100104.28;;;17.58;33.27
49825;BME280;35714;55.708;37.478;2023-05-11T05:16:48;100110.13;;;17.72;33.26
49825;BME280;35714;55.708;37.478;2023-05-11T05:19:14;100104.16;;;17.85;32.92
49825;BME280;35714;55.708;37.478;2023-05-11T05:21:40;100103.13;;;17.96;33.17
49825;BME280;35714;55.708;37.478;2023-05-11T05:24:06;100101.25;;;18.07;33.02
49825;BME280;35714;55.708;37.478;2023-05-11T05:26:35;100098.03;;;18.26;32.53
49825;BME280;35714;55.708;37.478;2023-05-11T05:29:03;100096.75;;;18.59;31.86
49825;BME280;35714;55.708;37.478;2023-05-11T05:31:29;100088.59;;;18.95;31.68
49825;BME280;35714;55.708;37.478;2023-05-11T05:33:55;100096.28;;;19.19;30.60
49825;BME280;35714;55.708;37.478;2023-05-11T05:36:21;100101.22;;;19.27;30.72
49825;BME280;35714;55.708;37.478;2023-05-11T05:38:47;100096.28;;;19.29;30.17
49825;BME280;35714;55.708;37.478;2023-05-11T05:41:12;100101.22;;;19.17;29.65
49825;BME280;35714;55.708;37.478;2023-05-11T05:43:41;100101.78;;;19.03;29.15
49825;BME280;35714;55.708;37.478;2023-05-11T05:46:07;100102.88;;;18.87;29.34
49825;BME280;35714;55.708;37.478;2023-05-11T05:48:33;100085.25;;;18.72;29.37
49825;BME280;35714;55.708;37.478;2023-05-11T05:50:58;100093.50;;;18.88;29.66
49825;BME280;35714;55.708;37.478;2023-05-11T05:53:24;100092.16;;;18.90;29.57
49825;BME280;35714;55.708;37.478;2023-05-11T05:55:50;100093.00;;;19.11;29.18
49825;BME280;35714;55.708;37.478;2023-05-11T05:58:16;100092.41;;;19.30;28.96
49825;BME280;35714;55.708;37.478;2023-05-11T06:00:42;100089.66;;;19.30;28.25
49825;BME280;35714;55.708;37.478;2023-05-11T06:03:09;100073.75;;;18.96;27.82
49825;BME280;35714;55.708;37.478;2023-05-11T06:05:35;100094.59;;;18.82;28.75
49825;BME280;35714;55.708;37.478;2023-05-11T06:08:01;100102.28;;;18.74;28.62
49825;BME280;35714;55.708;37.478;2023-05-11T06:10:28;100100.91;;;18.82;28.97
49825;BME280;35714;55.708;37.478;2023-05-11T06:12:53;100091.88;;;18.92;28.82
49825;BME280;35714;55.708;37.478;2023-05-11T06:15:20;100108.34;;;19.18;28.46
49825;BME280;35714;55.708;37.478;2023-05-11T06:17:51;100117.97;;;19.41;28.13
49825;BME280;35714;55.708;37.478;2023-05-11T06:20:16;100109.41;;;19.73;27.75
49825;BME280;35714;55.708;37.478;2023-05-11T06:22:42;100107.75;;;19.82;27.96
49825;BME280;35714;55.708;37.478;2023-05-11T06:25:08;100114.88;;;19.83;26.95
49825;BME280;35714;55.708;37.478;2023-05-11T06:27:34;100113.53;;;19.81;27.51
49825;BME280;35714;55.708;37.478;2023-05-11T06:30:00;100115.44;;;19.80;26.68
49825;BME280;35714;55.708;37.478;2023-05-11T06:32:33;100106.13;;;19.76;26.90
49825;BME280;35714;55.708;37.478;2023-05-11T06:34:59;100117.91;;;19.82;26.78
49825;BME280;35714;55.708;37.478;2023-05-11T06:37:29;100120.66;;;19.92;26.44
49825;BME280;35714;55.708;37.478;2023-05-11T06:39:57;100120.31;;;20.09;26.43
49825;BME280;35714;55.708;37.478;2023-05-11T06:42:23;100118.03;;;20.27;26.01
49825;BME280;35714;55.708;37.478;2023-05-11T06:44:49;100117.91;;;20.52;25.78
49825;BME280;35714;55.708;37.478;2023-05-11T06:47:14;100112.19;;;20.88;25.11
49825;BME280;35714;55.708;37.478;2023-05-11T06:49:40;100124.44;;;21.41;24.76
49825;BME280;35714;55.708;37.478;2023-05-11T06:52:07;100109.38;;;22.11;24.45
49825;BME280;35714;55.708;37.478;2023-05-11T06:54:33;100112.13;;;22.92;23.79
49825;BME280;35714;55.708;37.478;2023-05-11T06:56:59;100108.19;;;23.92;23.20
49825;BME280;35714;55.708;37.478;2023-05-11T06:59:28;100107.22;;;24.89;22.29
49825;BME280;35714;55.708;37.478;2023-05-11T07:01:54;100109.56;;;25.72;21.27
49825;BME280;35714;55.708;37.478;2023-05-11T07:04:20;100108.09;;;26.23;20.71
49825;BME280;35714;55.708;37.478;2023-05-11T07:06:46;100106.84;;;26.47;20.03
49825;BME280;35714;55.708;37.478;2023-05-11T07:09:12;100109.78;;;26.59;19.66
49825;BME280;35714;55.708;37.478;2023-05-11T07:11:38;100114.72;;;26.62;19.01
49825;BME280;35714;55.708;37.478;2023-05-11T07:14:03;100117.34;;;26.68;18.97
49825;BME280;35714;55.708;37.478;2023-05-11T07:16:30;100115.72;;;26.84;18.67
49825;BME280;35714;55.708;37.478;2023-05-11T07:18:56;100115.72;;;27.01;18.51
49825;BME280;35714;55.708;37.478;2023-05-11T07:21:21;100109.66;;;27.08;18.09
49825;BME280;35714;55.708;37.478;2023-05-11T07:23:47;100114.56;;;27.11;17.95
49825;BME280;35714;55.708;37.478;2023-05-11T07:26:13;100111.59;;;27.25;18.27
49825;BME280;35714;55.708;37.478;2023-05-11T07:28:38;100112.38;;;27.52;17.59
49825;BME280;35714;55.708;37.478;2023-05-11T07:31:04;100112.81;;;27.71;17.64
49825;BME280;35714;55.708;37.478;2023-05-11T07:33:30;100101.47;;;27.77;17.67
49825;BME280;35714;55.708;37.478;2023-05-11T07:35:57;100111.50;;;27.69;17.24
49825;BME280;35714;55.708;37.478;2023-05-11T07:38:23;100106.13;;;27.55;17.50
49825;BME280;35714;55.708;37.478;2023-05-11T07:40:49;100110.56;;;27.56;17.57
49825;BME280;35714;55.708;37.478;2023-05-11T07:43:14;100106.31;;;27.97;17.24
49825;BME280;35714;55.708;37.478;2023-05-11T07:45:40;100095.94;;;28.57;17.29
49825;BME280;35714;55.708;37.478;2023-05-11T07:48:06;100095.72;;;29.38;16.21
49825;BME280;35714;55.708;37.478;2023-05-11T07:50:32;100101.84;;;30.27;15.86
49825;BME280;35714;55.708;37.478;2023-05-11T07:52:57;100105.03;;;31.06;15.32
49825;BME280;35714;55.708;37.478;2023-05-11T07:55:23;100105.97;;;31.71;14.40
49825;BME280;35714;55.708;37.478;2023-05-11T07:57:54;100099.41;;;32.30;14.02
49825;BME280;35714;55.708;37.478;2023-05-11T08:00:20;100090.13;;;32.81;13.63
49825;BME280;35714;55.708;37.478;2023-05-11T08:02:46;100104.81;;;33.33;13.64
49825;BME280;35714;55.708;37.478;2023-05-11T08:05:12;100094.56;;;33.44;12.89
49825;BME280;35714;55.708;37.478;2023-05-11T08:07:38;100096.72;;;32.89;12.96
49825;BME280;35714;55.708;37.478;2023-05-11T08:10:04;100097.38;;;31.95;13.37
49825;BME280;35714;55.708;37.478;2023-05-11T08:12:31;100084.13;;;30.88;13.64
49825;BME280;35714;55.708;37.478;2023-05-11T08:14:57;100095.13;;;30.15;13.95
49825;BME280;35714;55.708;37.478;2023-05-11T08:17:22;100092.72;;;29.43;14.86
49825;BME280;35714;55.708;37.478;2023-05-11T08:19:48;100086.75;;;28.99;14.98
49825;BME280;35714;55.708;37.478;2023-05-11T08:22:14;100092.63;;;28.85;15.14
49825;BME280;35714;55.708;37.478;2023-05-11T08:24:39;100084.25;;;28.85;15.80
49825;BME280;35714;55.708;37.478;2023-05-11T08:27:05;100087.34;;;29.50;14.95
49825;BME280;35714;55.708;37.478;2023-05-11T08:29:31;100086.25;;;30.13;14.39
49825;BME280;35714;55.708;37.478;2023-05-11T08:31:56;100087.63;;;30.85;14.05
49825;BME280;35714;55.708;37.478;2023-05-11T08:34:23;100092.78;;;31.55;13.62
49825;BME280;35714;55.708;37.478;2023-05-11T08:36:49;100085.91;;;31.69;13.03
49825;BME280;35714;55.708;37.478;2023-05-11T08:39:15;100089.97;;;31.11;13.30
49825;BME280;35714;55.708;37.478;2023-05-11T08:41:42;100094.63;;;30.50;13.77
49825;BME280;35714;55.708;37.478;2023-05-11T08:44:08;100084.13;;;30.22;14.03
49825;BME280;35714;55.708;37.478;2023-05-11T08:46:34;100090.16;;;29.63;14.38
49825;BME280;35714;55.708;37.478;2023-05-11T08:49:00;100071.31;;;28.80;14.63
49825;BME280;35714;55.708;37.478;2023-05-11T08:51:26;100084.03;;;27.97;15.47
49825;BME280;35714;55.708;37.478;2023-05-11T08:53:53;100079.31;;;27.42;15.82
49825;BME280;35714;55.708;37.478;2023-05-11T08:56:20;100067.47;;;27.92;16.46
49825;BME280;35714;55.708;37.478;2023-05-11T08:58:46;100070.09;;;29.36;16.00
49825;BME280;35714;55.708;37.478;2023-05-11T09:01:16;100059.72;;;30.60;14.71
49825;BME280;35714;55.708;37.478;2023-05-11T09:03:43;100059.75;;;31.64;14.33
49825;BME280;35714;55.708;37.478;2023-05-11T09:06:11;100058.47;;;31.94;13.54
49825;BME280;35714;55.708;37.478;2023-05-11T09:08:37;100049.44;;;31.53;13.63
49825;BME280;35714;55.708;37.478;2023-05-11T09:11:04;100061.31;;;31.78;13.41
49825;BME280;35714;55.708;37.478;2023-05-11T09:13:31;100053.41;;;31.99;13.49
49825;BME280;35714;55.708;37.478;2023-05-11T09:15:57;100053.81;;;32.53;12.82
49825;BME280;35714;55.708;37.478;2023-05-11T09:18:23;100052.66;;;32.73;12.78
49825;BME280;35714;55.708;37.478;2023-05-11T09:20:49;100048.66;;;32.74;12.61
49825;BME280;35714;55.708;37.478;2023-05-11T09:23:17;100049.78;;;32.15;12.82
49825;BME280;35714;55.708;37.478;2023-05-11T09:25:42;100053.19;;;31.73;13.28
49825;BME280;35714;55.708;37.478;2023-05-11T09:28:11;100050.53;;;32.31;13.24
49825;BME280;35714;55.708;37.478;2023-05-11T09:30:37;100043.16;;;33.21;13.10
49825;BME280;35714;55.708;37.478;2023-05-11T09:33:03;100048.31;;;34.15;11.90
49825;BME280;35714;55.708;37.478;2023-05-11T09:35:31;100043.72;;;34.94;11.37
49825;BME280;35714;55.708;37.478;2023-05-11T09:38:08;100049.09;;;35.48;11.25
49825;BME280;35714;55.708;37.478;2023-05-11T09:40:35;100039.78;;;34.68;11.73
49825;BME280;35714;55.708;37.478;2023-05-11T09:43:15;100043.09;;;32.98;12.02
49825;BME280;35714;55.708;37.478;2023-05-11T09:45:43;100035.59;;;31.12;13.49
49825;BME280;35714;55.708;37.478;2023-05-11T09:48:24;100034.06;;;29.80;14.82
49825;BME280;35714;55.708;37.478;2023-05-11T09:50:58;100039.88;;;28.50;16.19
49825;BME280;35714;55.708;37.478;2023-05-11T09:55:59;100034.84;;;26.63;17.47
49825;BME280;35714;55.708;37.478;2023-05-11T09:58:25;100022.50;;;25.85;18.28
49825;BME280;35714;55.708;37.478;2023-05-11T10:00:52;100039.06;;;25.28;18.92
49825;BME280;35714;55.708;37.478;2023-05-11T10:03:19;100032.44;;;24.61;19.67
49825;BME280;35714;55.708;37.478;2023-05-11T10:05:58;100028.66;;;24.06;19.84
49825;BME280;35714;55.708;37.478;2023-05-11T10:08:29;100029.28;;;23.48;21.20
49825;BME280;35714;55.708;37.478;2023-05-11T10:10:56;100032.16;;;22.96;21.05
49825;BME280;35714;55.708;37.478;2023-05-11T10:13:23;100053.97;;;22.45;22.18
49825;BME280;35714;55.708;37.478;2023-05-11T10:15:53;100054.66;;;21.70;25.27
49825;BME280;35714;55.708;37.478;2023-05-11T10:18:19;100056.25;;;20.88;26.63
49825;BME280;35714;55.708;37.478;2023-05-11T10:20:45;100049.72;;;20.29;27.89
49825;BME280;35714;55.708;37.478;2023-05-11T10:23:11;100067.00;;;19.85;28.89
49825;BME280;35714;55.708;37.478;2023-05-11T10:25:38;100071.50;;;19.50;30.01
49825;BME280;35714;55.708;37.478;2023-05-11T10:28:04;100064.13;;;18.99;31.66
49825;BME280;35714;55.708;37.478;2023-05-11T10:30:32;100059.94;;;18.50;29.38
49825;BME280;35714;55.708;37.478;2023-05-11T10:32:59;100043.31;;;17.93;29.21
49825;BME280;35714;55.708;37.478;2023-05-11T10:35:26;100040.03;;;17.43;31.73
49825;BME280;35714;55.708;37.478;2023-05-11T10:37:53;100047.81;;;17.19;32.72
49825;BME280;35714;55.708;37.478;2023-05-11T10:40:19;100044.53;;;17.17;32.61
49825;BME280;35714;55.708;37.478;2023-05-11T10:51:32;100035.66;;;22.30;28.03
49825;BME280;35714;55.708;37.478;2023-05-11T11:02:07;100025.91;;;23.51;25.36
49825;BME280;35714;55.708;37.478;2023-05-11T11:04:50;100022.13;;;24.39;24.69
49825;BME280;35714;55.708;37.478;2023-05-11T11:07:17;100021.22;;;24.89;23.50
49825;BME280;35714;55.708;37.478;2023-05-11T11:10:00;100023.63;;;24.59;23.37
49825;BME280;35714;55.708;37.478;2023-05-11T11:12:30;100025.84;;;23.84;24.01
49825;BME280;35714;55.708;37.478;2023-05-11T11:15:04;100017.25;;;23.11;24.74
49825;BME280;35714;55.708;37.478;2023-05-11T11:17:35;100011.84;;;22.34;26.03
49825;BME280;35714;55.708;37.478;2023-05-11T11:20:03;100010.28;;;21.85;26.81
49825;BME280;35714;55.708;37.478;2023-05-11T11:25:09;100027.28;;;21.44;27.42
49825;BME280;35714;55.708;37.478;2023-05-11T11:30:23;100045.75;;;21.19;26.85
49825;BME280;35714;55.708;37.478;2023-05-11T11:32:52;100063.81;;;21.06;27.88
49825;BME280;35714;55.708;37.478;2023-05-11T11:35:44;100080.97;;;20.98;28.79
49825;BME280;35714;55.708;37.478;2023-05-11T11:40:39;100094.31;;;20.36;30.36
49825;BME280;35714;55.708;37.478;2023-05-11T11:43:12;100109.66;;;19.92;31.53
49825;BME280;35714;55.708;37.478;2023-05-11T11:45:39;100137.22;;;19.41;32.74
49825;BME280;35714;55.708;37.478;2023-05-11T11:48:12;100148.78;;;18.91;34.16
49825;BME280;35714;55.708;37.478;2023-05-11T11:50:43;100157.66;;;18.35;36.28
49825;BME280;35714;55.708;37.478;2023-05-11T11:53:11;100149.09;;;17.79;38.40
49825;BME280;35714;55.708;37.478;2023-05-11T11:55:49;100138.63;;;17.28;39.95
49825;BME280;35714;55.708;37.478;2023-05-11T12:01:20;100138.66;;;16.24;42.75
49825;BME280;35714;55.708;37.478;2023-05-11T12:03:54;100133.41;;;15.78;44.15
49825;BME280;35714;55.708;37.478;2023-05-11T12:06:24;100132.75;;;15.37;45.60
49825;BME280;35714;55.708;37.478;2023-05-11T12:08:56;100123.53;;;15.26;46.45
49825;BME280;35714;55.708;37.478;2023-05-11T12:11:23;100119.19;;;15.42;46.95
49825;BME280;35714;55.708;37.478;2023-05-11T12:13:49;100106.59;;;15.41;48.12
49825;BME280;35714;55.708;37.478;2023-05-11T12:16:16;100096.81;;;15.28;50.35
49825;BME280;35714;55.708;37.478;2023-05-11T12:21:22;100085.06;;;15.28;51.09
49825;BME280;35714;55.708;37.478;2023-05-11T12:24:02;100077.09;;;15.43;51.28
49825;BME280;35714;55.708;37.478;2023-05-11T12:26:29;100073.78;;;15.41;50.52
49825;BME280;35714;55.708;37.478;2023-05-11T12:29:09;100066.66;;;15.40;50.30
49825;BME280;35714;55.708;37.478;2023-05-11T12:31:42;100066.53;;;15.30;50.34
49825;BME280;35714;55.708;37.478;2023-05-11T12:34:21;100065.91;;;15.28;50.13
49825;BME280;35714;55.708;37.478;2023-05-11T12:36:49;100065.69;;;15.29;49.93
49825;BME280;35714;55.708;37.478;2023-05-11T12:41:46;100050.53;;;15.78;49.92
49825;BME280;35714;55.708;37.478;2023-05-11T12:44:14;100046.63;;;17.05;49.42
49825;BME280;35714;55.708;37.478;2023-05-11T12:46:40;100039.63;;;18.71;46.46
49825;BME280;35714;55.708;37.478;2023-05-11T12:49:06;100033.16;;;20.39;43.05
49825;BME280;35714;55.708;37.478;2023-05-11T12:52:02;100037.31;;;21.88;38.87
49825;BME280;35714;55.708;37.478;2023-05-11T12:54:39;100034.41;;;22.94;37.06
49825;BME280;35714;55.708;37.478;2023-05-11T12:57:07;100032.59;;;24.05;32.81
49825;BME280;35714;55.708;37.478;2023-05-11T12:59:35;100029.41;;;24.71;31.99
49825;BME280;35714;55.708;37.478;2023-05-11T13:02:05;100031.69;;;25.46;29.81
49825;BME280;35714;55.708;37.478;2023-05-11T13:04:31;100025.84;;;26.05;28.93
49825;BME280;35714;55.708;37.478;2023-05-11T13:06:57;100020.78;;;26.77;28.40
49825;BME280;35714;55.708;37.478;2023-05-11T13:09:24;100027.59;;;27.62;26.91
49825;BME280;35714;55.708;37.478;2023-05-11T13:12:06;100023.88;;;27.87;25.02
49825;BME280;35714;55.708;37.478;2023-05-11T13:14:31;100029.03;;;27.77;25.38
49825;BME280;35714;55.708;37.478;2023-05-11T13:16:57;100022.19;;;28.25;26.18
49825;BME280;35714;55.708;37.478;2023-05-11T13:19:29;100029.31;;;29.10;25.13
49825;BME280;35714;55.708;37.478;2023-05-11T13:21:58;100034.06;;;30.05;23.38
49825;BME280;35714;55.708;37.478;2023-05-11T13:24:25;100026.91;;;30.89;22.66
49825;BME280;35714;55.708;37.478;2023-05-11T13:26:51;100023.78;;;31.51;19.40
49825;BME280;35714;55.708;37.478;2023-05-11T13:29:17;100020.25;;;32.21;19.82
49825;BME280;35714;55.708;37.478;2023-05-11T13:31:50;100028.19;;;33.17;18.23